createdAt,value
2018-08-22T00:02:25.263Z,21.98
2018-08-22T00:04:54.734Z,21.98
2018-08-22T00:07:24.361Z,22.03
2018-08-22T00:09:54.020Z,22.01
2018-08-22T00:12:23.485Z,21.97
2018-08-22T00:14:53.029Z,21.97
2018-08-22T00:17:22.449Z,22.04
2018-08-22T00:19:52.127Z,21.97
2018-08-22T00:22:21.760Z,21.83
2018-08-22T00:24:51.163Z,21.85
2018-08-22T00:27:20.520Z,21.72
2018-08-22T00:29:50.026Z,21.61
2018-08-22T00:32:19.517Z,21.59
2018-08-22T00:34:49.058Z,21.48
2018-08-22T00:37:19.643Z,21.44
2018-08-22T00:39:49.394Z,21.37
2018-08-22T00:42:18.812Z,21.36
2018-08-22T00:44:48.273Z,21.28
2018-08-22T00:47:17.690Z,21.33
2018-08-22T00:49:47.054Z,21.33
2018-08-22T00:52:16.717Z,21.28
2018-08-22T00:54:46.191Z,21.23
2018-08-22T00:57:15.748Z,21.23
2018-08-22T00:59:45.355Z,21.32
2018-08-22T01:02:14.857Z,21.33
2018-08-22T01:04:44.403Z,21.27
2018-08-22T01:07:14.035Z,21.23
2018-08-22T01:09:43.570Z,21.18
2018-08-22T01:12:12.980Z,21.18
2018-08-22T01:14:42.423Z,21.19
2018-08-22T01:17:11.836Z,21.18
2018-08-22T01:19:41.264Z,21.10
2018-08-22T01:22:10.709Z,21.08
2018-08-22T01:24:40.268Z,21.10
2018-08-22T01:27:14.352Z,21.08
2018-08-22T01:29:43.713Z,21.01
2018-08-22T01:32:13.039Z,20.96
2018-08-22T01:34:42.520Z,20.90
2018-08-22T01:37:11.952Z,20.84
2018-08-22T01:39:41.705Z,20.84
2018-08-22T01:42:11.135Z,20.87
2018-08-22T01:44:40.490Z,20.93
2018-08-22T01:47:09.858Z,20.90
2018-08-22T01:49:39.395Z,20.89
2018-08-22T01:52:08.830Z,20.85
2018-08-22T01:54:38.313Z,20.85
2018-08-22T01:57:07.723Z,20.89
2018-08-22T01:59:37.030Z,20.84
2018-08-22T02:02:06.503Z,20.80
2018-08-22T02:04:35.896Z,20.81
2018-08-22T02:07:05.422Z,20.69
2018-08-22T02:09:34.817Z,20.63
2018-08-22T02:12:04.248Z,20.59
2018-08-22T02:14:33.659Z,20.49
2018-08-22T02:17:03.058Z,20.36
2018-08-22T02:19:32.369Z,20.27
2018-08-22T02:22:01.702Z,20.37
2018-08-22T02:24:30.988Z,20.40
2018-08-22T02:27:00.633Z,20.44
2018-08-22T02:29:30.077Z,20.27
2018-08-22T02:31:59.492Z,20.27
2018-08-22T02:34:29.037Z,20.26
2018-08-22T02:36:58.638Z,20.31
2018-08-22T02:39:28.560Z,20.35
2018-08-22T02:41:57.937Z,20.36
2018-08-22T02:44:27.612Z,20.40
2018-08-22T02:46:56.953Z,20.33
2018-08-22T02:49:26.396Z,20.35
2018-08-22T02:51:55.764Z,20.28
2018-08-22T02:54:26.572Z,20.23
2018-08-22T02:56:55.998Z,20.18
2018-08-22T02:59:25.531Z,20.08
2018-08-22T03:01:55.005Z,20.07
2018-08-22T03:04:24.386Z,20.07
2018-08-22T03:06:53.702Z,20.10
2018-08-22T03:09:23.164Z,19.42
2018-08-22T03:11:52.443Z,20.03
2018-08-22T03:14:21.737Z,20.05
2018-08-22T03:16:51.029Z,20.04
2018-08-22T03:19:20.771Z,20.14
2018-08-22T03:21:50.191Z,20.08
2018-08-22T03:24:19.646Z,20.05
2018-08-22T03:26:49.025Z,19.96
2018-08-22T03:29:18.482Z,19.98
2018-08-22T03:31:48.027Z,19.82
2018-08-22T03:34:17.526Z,19.83
2018-08-22T03:36:47.169Z,19.79
2018-08-22T03:39:16.644Z,19.77
2018-08-22T03:41:46.099Z,19.69
2018-08-22T03:44:15.788Z,19.59
2018-08-22T03:46:45.395Z,19.50
2018-08-22T03:49:14.968Z,19.41
2018-08-22T03:51:44.500Z,19.47
2018-08-22T03:54:13.963Z,19.47
2018-08-22T03:56:43.597Z,19.44
2018-08-22T03:59:13.084Z,19.43
2018-08-22T04:01:42.611Z,19.50
2018-08-22T04:04:11.948Z,19.51
2018-08-22T04:06:41.204Z,19.57
2018-08-22T04:09:10.694Z,19.55
2018-08-22T04:11:40.148Z,19.61
2018-08-22T04:14:09.636Z,19.62
2018-08-22T04:16:38.981Z,19.78
2018-08-22T04:19:08.429Z,19.98
2018-08-22T04:21:37.825Z,20.39
2018-08-22T04:24:07.224Z,20.71
2018-08-22T04:26:36.657Z,20.99
2018-08-22T04:29:06.724Z,21.42
2018-08-22T04:31:36.308Z,21.82
2018-08-22T04:34:05.843Z,22.13
2018-08-22T04:36:35.341Z,22.40
2018-08-22T04:39:06.509Z,22.84
2018-08-22T04:41:35.831Z,23.25
2018-08-22T04:44:05.526Z,23.52
2018-08-22T04:46:35.081Z,23.89
2018-08-22T04:49:04.633Z,24.25
2018-08-22T04:51:34.137Z,24.80
2018-08-22T04:54:03.673Z,24.94
2018-08-22T04:56:33.608Z,25.20
2018-08-22T04:59:03.175Z,25.50
2018-08-22T05:01:32.749Z,25.52
2018-08-22T05:04:02.257Z,25.65
2018-08-22T05:06:31.672Z,25.89
2018-08-22T05:09:01.220Z,26.30
2018-08-22T05:11:30.778Z,26.71
2018-08-22T05:14:00.835Z,27.19
2018-08-22T05:16:30.479Z,27.63
2018-08-22T05:19:00.014Z,28.03
2018-08-22T05:21:29.480Z,27.99
2018-08-22T05:23:59.218Z,28.16
2018-08-22T05:26:29.010Z,28.39
2018-08-22T05:28:58.497Z,28.67
2018-08-22T05:31:27.940Z,28.41
2018-08-22T05:33:57.587Z,28.45
2018-08-22T05:36:27.687Z,29.09
2018-08-22T05:38:57.164Z,28.97
2018-08-22T05:41:26.619Z,29.41
2018-08-22T05:43:56.116Z,29.72
2018-08-22T05:46:25.582Z,29.34
2018-08-22T05:48:55.151Z,29.55
2018-08-22T05:51:24.776Z,29.89
2018-08-22T05:53:54.202Z,30.16
2018-08-22T05:56:23.705Z,30.07
2018-08-22T05:58:54.258Z,30.05
2018-08-22T06:01:23.589Z,30.28
2018-08-22T06:03:53.007Z,30.32
2018-08-22T06:06:25.418Z,31.30
2018-08-22T06:08:55.217Z,31.42
2018-08-22T06:11:25.341Z,31.24
2018-08-22T06:13:54.855Z,32.24
2018-08-22T06:16:24.273Z,32.15
2018-08-22T06:18:53.701Z,32.63
2018-08-22T06:21:23.192Z,32.95
2018-08-22T06:23:52.913Z,33.66
2018-08-22T06:26:22.464Z,33.45
2018-08-22T06:28:51.921Z,34.30
2018-08-22T06:31:21.410Z,35.18
2018-08-22T06:33:50.881Z,35.43
2018-08-22T06:36:20.640Z,34.70
2018-08-22T06:38:50.083Z,34.79
2018-08-22T06:41:19.566Z,35.33
2018-08-22T06:43:48.914Z,35.12
2018-08-22T06:46:18.270Z,34.93
2018-08-22T06:48:47.997Z,34.76
2018-08-22T06:51:17.424Z,35.37
2018-08-22T06:53:50.282Z,35.14
2018-08-22T06:56:19.609Z,34.97
2018-08-22T06:58:48.943Z,34.90
2018-08-22T07:01:18.347Z,34.88
2018-08-22T07:03:47.997Z,35.38
2018-08-22T07:06:17.511Z,34.84
2018-08-22T07:08:47.088Z,34.81
2018-08-22T07:11:16.589Z,34.53
2018-08-22T07:13:46.738Z,34.05
2018-08-22T07:16:16.236Z,34.70
2018-08-22T07:18:45.600Z,34.13
2018-08-22T07:21:15.026Z,34.68
2018-08-22T07:23:44.374Z,35.39
2018-08-22T07:26:13.840Z,35.39
2018-08-22T07:28:43.045Z,35.90
2018-08-22T07:31:12.450Z,35.36
2018-08-22T07:33:42.096Z,36.27
2018-08-22T07:36:11.536Z,35.75
2018-08-22T07:38:41.711Z,36.06
2018-08-22T07:41:11.774Z,36.27
2018-08-22T07:43:41.264Z,36.40
2018-08-22T07:46:10.686Z,37.49
2018-08-22T07:48:40.039Z,37.29
2018-08-22T07:51:09.701Z,36.86
2018-08-22T07:53:39.200Z,37.48
2018-08-22T07:56:08.810Z,36.99
2018-08-22T07:58:38.394Z,36.67
2018-08-22T08:01:07.833Z,37.37
2018-08-22T08:03:37.403Z,36.94
2018-08-22T08:06:07.202Z,37.50
2018-08-22T08:08:36.659Z,37.36
2018-08-22T08:11:06.177Z,36.93
2018-08-22T08:13:35.538Z,37.24
2018-08-22T08:16:04.789Z,37.54
2018-08-22T08:18:35.030Z,37.92
2018-08-22T08:21:04.256Z,37.41
2018-08-22T08:23:33.726Z,37.76
2018-08-22T08:26:03.203Z,37.29
2018-08-22T08:28:33.198Z,37.73
2018-08-22T08:31:02.872Z,37.59
2018-08-22T08:33:32.299Z,37.62
2018-08-22T08:36:01.750Z,37.80
2018-08-22T08:38:31.265Z,37.82
2018-08-22T08:41:00.761Z,38.83
2018-08-22T08:43:30.643Z,38.27
2018-08-22T08:46:00.350Z,38.06
2018-08-22T08:48:29.831Z,38.48
2018-08-22T08:50:59.363Z,38.73
2018-08-22T08:53:28.765Z,38.54
2018-08-22T08:55:58.217Z,38.71
2018-08-22T08:58:27.734Z,38.66
2018-08-22T09:00:57.318Z,39.25
2018-08-22T09:03:27.415Z,39.96
2018-08-22T09:05:56.855Z,38.45
2018-08-22T09:08:26.600Z,38.60
2018-08-22T09:10:56.308Z,39.90
2018-08-22T09:13:25.911Z,39.09
2018-08-22T09:15:55.336Z,39.47
2018-08-22T09:18:25.116Z,39.52
2018-08-22T09:20:54.797Z,39.13
2018-08-22T09:23:24.418Z,39.15
2018-08-22T09:25:53.920Z,40.06
2018-08-22T09:28:23.588Z,40.19
2018-08-22T09:30:53.056Z,38.49
2018-08-22T09:33:22.614Z,39.19
2018-08-22T09:35:52.469Z,39.07
2018-08-22T09:38:22.573Z,38.13
2018-08-22T09:40:52.229Z,38.59
2018-08-22T09:43:21.909Z,39.27
2018-08-22T09:45:55.373Z,40.03
2018-08-22T09:48:24.945Z,40.42
2018-08-22T09:50:54.568Z,39.22
2018-08-22T09:53:24.030Z,39.04
2018-08-22T09:55:53.392Z,38.99
2018-08-22T09:58:22.789Z,38.58
2018-08-22T10:00:57.971Z,38.87
2018-08-22T10:03:27.740Z,38.39
2018-08-22T10:05:57.308Z,39.42
2018-08-22T10:08:26.858Z,39.43
2018-08-22T10:10:56.232Z,39.83
2018-08-22T10:13:25.756Z,39.16
2018-08-22T10:15:55.096Z,39.12
2018-08-22T10:18:24.606Z,39.22
2018-08-22T10:20:54.146Z,40.12
2018-08-22T10:23:23.633Z,38.98
2018-08-22T10:25:53.557Z,39.14
2018-08-22T10:28:23.400Z,38.64
2018-08-22T10:30:52.994Z,39.33
2018-08-22T10:33:22.591Z,39.70
2018-08-22T10:35:52.055Z,38.64
2018-08-22T10:38:21.445Z,39.26
2018-08-22T10:40:51.128Z,39.26
2018-08-22T10:43:20.568Z,39.26
2018-08-22T10:45:50.608Z,39.27
2018-08-22T10:48:20.395Z,39.32
2018-08-22T10:50:49.986Z,39.14
2018-08-22T10:53:19.549Z,39.94
2018-08-22T10:55:49.071Z,39.87
2018-08-22T10:58:18.775Z,38.77
2018-08-22T11:00:48.543Z,38.30
2018-08-22T11:03:18.346Z,38.85
2018-08-22T11:05:47.879Z,39.58
2018-08-22T11:08:17.333Z,39.79
2018-08-22T11:10:46.991Z,40.46
2018-08-22T11:13:16.636Z,39.58
2018-08-22T11:15:46.189Z,39.46
2018-08-22T11:18:15.942Z,37.94
2018-08-22T11:20:47.456Z,38.34
2018-08-22T11:23:29.209Z,38.86
2018-08-22T11:26:10.050Z,38.94
2018-08-22T11:28:50.846Z,38.41
2018-08-22T11:31:31.280Z,38.82
2018-08-22T11:34:11.536Z,39.96
2018-08-22T11:36:43.723Z,40.18
2018-08-22T11:39:13.615Z,40.38
2018-08-22T11:41:43.143Z,38.44
2018-08-22T11:44:12.717Z,38.81
2018-08-22T11:46:42.395Z,39.00
2018-08-22T11:49:11.995Z,38.84
2018-08-22T11:51:41.543Z,36.79
2018-08-22T11:54:11.231Z,36.24
2018-08-22T11:56:41.034Z,35.96
2018-08-22T11:59:10.695Z,35.18
2018-08-22T12:01:39.962Z,35.04
2018-08-22T12:04:10.454Z,34.80
2018-08-22T12:06:40.327Z,34.13
2018-08-22T12:09:11.776Z,34.11
2018-08-22T12:11:42.003Z,34.07
2018-08-22T12:14:11.798Z,33.81
2018-08-22T12:16:41.861Z,33.56
2018-08-22T12:19:12.178Z,33.47
2018-08-22T12:21:42.591Z,33.50
2018-08-22T12:24:13.728Z,33.01
2018-08-22T12:26:43.932Z,33.01
2018-08-22T12:29:13.531Z,33.15
2018-08-22T12:31:43.075Z,33.31
2018-08-22T12:34:12.621Z,33.73
2018-08-22T12:36:42.081Z,33.84
2018-08-22T12:39:11.589Z,33.96
2018-08-22T12:41:41.069Z,33.80
2018-08-22T12:44:10.550Z,33.70
2018-08-22T12:46:40.171Z,33.83
2018-08-22T12:49:10.010Z,33.44
2018-08-22T12:51:40.029Z,33.08
2018-08-22T12:54:09.546Z,33.26
2018-08-22T12:56:39.135Z,33.34
2018-08-22T12:59:08.939Z,33.54
2018-08-22T13:01:38.707Z,33.71
2018-08-22T13:04:08.616Z,33.71
2018-08-22T13:06:38.454Z,33.57
2018-08-22T13:09:10.319Z,33.50
2018-08-22T13:11:39.768Z,33.61
2018-08-22T13:14:09.469Z,33.67
2018-08-22T13:16:38.963Z,33.71
2018-08-22T13:19:08.594Z,33.82
2018-08-22T13:21:38.071Z,33.96
2018-08-22T13:24:08.010Z,33.86
2018-08-22T13:26:37.693Z,33.68
2018-08-22T13:29:07.258Z,33.75
2018-08-22T13:31:36.772Z,33.95
2018-08-22T13:34:06.752Z,33.83
2018-08-22T13:36:36.518Z,34.00
2018-08-22T13:39:08.587Z,33.85
2018-08-22T13:41:38.653Z,34.04
2018-08-22T13:44:08.769Z,34.03
2018-08-22T13:46:38.676Z,34.05
2018-08-22T13:49:08.315Z,33.87
2018-08-22T13:51:37.758Z,34.11
2018-08-22T13:54:07.407Z,34.21
2018-08-22T13:56:36.866Z,33.86
2018-08-22T13:59:06.581Z,33.98
2018-08-22T14:01:36.440Z,34.02
2018-08-22T14:04:06.125Z,33.93
2018-08-22T14:06:35.601Z,33.93
2018-08-22T14:09:06.970Z,33.55
2018-08-22T14:11:36.646Z,33.47
2018-08-22T14:14:06.219Z,33.45
2018-08-22T14:16:36.133Z,33.41
2018-08-22T14:19:06.004Z,33.42
2018-08-22T14:21:35.525Z,33.49
2018-08-22T14:24:05.131Z,33.41
2018-08-22T14:26:34.596Z,33.27
2018-08-22T14:29:04.139Z,33.25
2018-08-22T14:31:33.573Z,33.31
2018-08-22T14:34:03.082Z,33.38
2018-08-22T14:36:32.591Z,33.27
2018-08-22T14:39:02.540Z,33.28
2018-08-22T14:41:32.169Z,33.25
2018-08-22T14:44:01.665Z,33.20
2018-08-22T14:46:31.263Z,33.12
2018-08-22T14:49:00.896Z,33.10
2018-08-22T14:51:30.652Z,33.09
2018-08-22T14:54:00.621Z,33.06
2018-08-22T14:56:30.330Z,33.07
2018-08-22T14:59:00.266Z,33.04
2018-08-22T15:01:29.937Z,33.07
2018-08-22T15:03:59.689Z,33.04
2018-08-22T15:06:29.013Z,33.06
2018-08-22T15:09:04.212Z,33.13
2018-08-22T15:11:35.865Z,33.17
2018-08-22T15:14:06.411Z,33.20
2018-08-22T15:16:36.036Z,33.17
2018-08-22T15:19:05.817Z,33.16
2018-08-22T15:21:36.006Z,33.16
2018-08-22T15:24:05.602Z,33.14
2018-08-22T15:26:36.174Z,33.04
2018-08-22T15:29:06.200Z,33.07
2018-08-22T15:31:36.190Z,32.94
2018-08-22T15:34:06.183Z,32.94
2018-08-22T15:36:37.244Z,32.77
2018-08-22T15:39:09.748Z,32.97
2018-08-22T15:41:39.787Z,32.97
2018-08-22T15:44:09.472Z,33.00
2018-08-22T15:46:39.005Z,32.90
2018-08-22T15:49:08.820Z,32.86
2018-08-22T15:51:38.608Z,33.01
2018-08-22T15:54:14.188Z,32.95
2018-08-22T15:56:44.167Z,32.81
2018-08-22T15:59:14.188Z,32.80
2018-08-22T16:01:43.860Z,32.72
2018-08-22T16:04:13.441Z,32.68
2018-08-22T16:06:42.899Z,32.62
2018-08-22T16:09:17.760Z,32.57
2018-08-22T16:11:47.692Z,32.54
2018-08-22T16:14:17.509Z,32.57
2018-08-22T16:16:47.448Z,32.55
2018-08-22T16:19:17.005Z,32.52
2018-08-22T16:21:46.910Z,32.46
2018-08-22T16:24:16.605Z,32.50
2018-08-22T16:26:46.552Z,32.48
2018-08-22T16:29:16.281Z,32.49
2018-08-22T16:31:46.583Z,32.58
2018-08-22T16:34:17.065Z,32.53
2018-08-22T16:36:46.830Z,32.52
2018-08-22T16:39:21.095Z,32.50
2018-08-22T16:41:50.725Z,32.46
2018-08-22T16:44:20.811Z,32.44
2018-08-22T16:46:50.758Z,32.42
2018-08-22T16:49:20.466Z,32.39
2018-08-22T16:51:50.085Z,32.27
2018-08-22T16:54:20.012Z,32.18
2018-08-22T16:56:49.793Z,32.11
2018-08-22T16:59:20.454Z,31.96
2018-08-22T17:01:52.644Z,31.83
2018-08-22T17:04:22.317Z,31.71
2018-08-22T17:06:51.962Z,31.59
2018-08-22T17:09:21.526Z,31.46
2018-08-22T17:11:50.984Z,31.36
2018-08-22T17:14:20.424Z,31.21
2018-08-22T17:16:49.949Z,31.09
2018-08-22T17:19:19.873Z,30.93
2018-08-22T17:21:49.555Z,30.81
2018-08-22T17:24:19.092Z,30.68
2018-08-22T17:26:48.526Z,30.48
2018-08-22T17:29:19.174Z,30.30
2018-08-22T17:31:52.895Z,30.16
2018-08-22T17:34:22.473Z,29.98
2018-08-22T17:37:03.675Z,29.83
2018-08-22T17:39:33.741Z,29.66
2018-08-22T17:42:03.811Z,29.50
2018-08-22T17:44:33.392Z,29.42
2018-08-22T17:47:02.971Z,29.41
2018-08-22T17:49:32.704Z,29.30
2018-08-22T17:52:06.656Z,29.16
2018-08-22T17:54:36.478Z,29.06
2018-08-22T17:57:24.129Z,29.03
2018-08-22T17:59:54.276Z,28.89
2018-08-22T18:02:23.886Z,28.84
2018-08-22T18:04:57.339Z,28.73
2018-08-22T18:07:27.756Z,28.66
2018-08-22T18:14:52.027Z,28.44
2018-08-22T18:17:21.894Z,28.35
2018-08-22T18:19:51.509Z,28.32
2018-08-22T18:22:20.917Z,28.27
2018-08-22T18:24:56.230Z,28.26
2018-08-22T18:27:25.903Z,28.27
2018-08-22T18:29:55.548Z,28.15
2018-08-22T18:32:25.389Z,28.15
2018-08-22T18:35:08.332Z,28.09
2018-08-22T18:37:38.030Z,28.08
2018-08-22T18:40:20.566Z,27.98
2018-08-22T18:43:02.851Z,27.94
2018-08-22T18:45:32.484Z,27.90
2018-08-22T18:48:04.043Z,27.98
2018-08-22T18:50:34.641Z,27.92
2018-08-22T18:53:04.136Z,27.93
2018-08-22T18:55:34.835Z,27.98
2018-08-22T18:58:05.919Z,27.96
2018-08-22T19:00:38.144Z,27.88
2018-08-22T19:03:07.895Z,27.90
2018-08-22T19:05:38.338Z,27.90
2018-08-22T19:08:17.758Z,27.83
2018-08-22T19:10:50.284Z,27.77
2018-08-22T19:13:22.941Z,27.69
2018-08-22T19:15:56.408Z,27.68
2018-08-22T19:18:26.044Z,27.67
2018-08-22T19:20:59.275Z,27.68
2018-08-22T19:23:29.297Z,27.68
2018-08-22T19:25:59.545Z,27.66
2018-08-22T19:28:29.236Z,27.05
2018-08-22T19:30:58.706Z,27.44
2018-08-22T19:33:29.703Z,27.41
2018-08-22T19:35:59.605Z,27.45
2018-08-22T19:38:29.276Z,27.39
2018-08-22T19:41:00.981Z,27.39
2018-08-22T19:43:31.158Z,27.35
2018-08-22T19:46:00.776Z,27.42
2018-08-22T19:48:30.244Z,27.33
2018-08-22T19:50:59.932Z,27.22
2018-08-22T19:53:29.750Z,27.17
2018-08-22T19:55:59.292Z,27.11
2018-08-22T19:58:34.792Z,27.06
2018-08-22T20:01:04.548Z,27.01
2018-08-22T20:03:35.443Z,26.95
2018-08-22T20:06:05.274Z,26.89
2018-08-22T20:08:37.969Z,26.65
2018-08-22T20:11:08.236Z,26.53
2018-08-22T20:13:50.334Z,26.57
2018-08-22T20:16:21.207Z,26.64
2018-08-22T20:18:54.882Z,26.55
2018-08-22T20:21:32.326Z,26.51
2018-08-22T20:24:02.823Z,26.38
2018-08-22T20:26:32.858Z,26.28
2018-08-22T20:29:04.419Z,26.18
2018-08-22T20:31:35.875Z,26.08
2018-08-22T20:34:10.033Z,26.05
2018-08-22T20:36:39.774Z,25.97
2018-08-22T20:39:11.351Z,25.90
2018-08-22T20:41:41.474Z,25.96
2018-08-22T20:44:13.610Z,25.93
2018-08-22T20:46:44.788Z,25.86
2018-08-22T20:49:14.700Z,25.86
2018-08-22T20:51:44.624Z,25.84
2018-08-22T20:54:15.706Z,25.81
2018-08-22T20:56:50.414Z,25.72
2018-08-22T20:59:20.739Z,25.70
2018-08-22T21:01:55.711Z,25.50
2018-08-22T21:04:25.270Z,25.52
2018-08-22T21:06:54.734Z,25.36
2018-08-22T21:09:24.351Z,25.39
2018-08-22T21:11:56.855Z,25.35
2018-08-22T21:14:27.736Z,25.21
2018-08-22T21:16:57.578Z,25.25
2018-08-22T21:19:27.141Z,25.15
2018-08-22T21:21:56.521Z,25.21
2018-08-22T21:24:26.643Z,25.05
2018-08-22T21:26:56.528Z,24.80
2018-08-22T21:29:25.945Z,24.75
2018-08-22T21:31:55.704Z,24.55
2018-08-22T21:34:25.266Z,24.57
2018-08-22T21:36:55.028Z,24.56
2018-08-22T21:39:27.647Z,24.53
2018-08-22T21:41:57.683Z,24.52
2018-08-22T21:44:27.183Z,24.51
2018-08-22T21:47:02.048Z,24.41
2018-08-22T21:49:31.972Z,24.20
2018-08-22T21:52:02.137Z,24.13
2018-08-22T21:54:31.869Z,24.12
2018-08-22T21:57:01.464Z,24.11
2018-08-22T21:59:30.929Z,24.03
2018-08-22T22:02:05.782Z,24.07
2018-08-22T22:04:36.920Z,24.08
2018-08-22T22:07:08.224Z,24.08
2018-08-22T22:09:38.586Z,24.04
2018-08-22T22:12:13.482Z,23.92
2018-08-22T22:14:45.179Z,23.66
2018-08-22T22:17:14.581Z,23.47
2018-08-22T22:19:43.990Z,23.43
2018-08-22T22:22:13.667Z,23.27
2018-08-22T22:24:52.830Z,23.22
2018-08-22T22:27:22.710Z,23.12
2018-08-22T22:30:01.973Z,23.07
2018-08-22T22:32:32.080Z,23.04
2018-08-22T22:35:02.196Z,22.99
2018-08-22T22:37:31.664Z,22.88
2018-08-22T22:40:01.146Z,22.91
2018-08-22T22:42:30.666Z,22.94
2018-08-22T22:45:00.703Z,22.90
2018-08-22T22:47:33.516Z,22.86
2018-08-22T22:50:03.619Z,22.45
2018-08-22T22:52:39.292Z,22.95
2018-08-22T22:55:09.777Z,22.88
2018-08-22T22:57:40.650Z,22.86
2018-08-22T23:00:11.834Z,22.82
2018-08-22T23:02:41.587Z,22.83
2018-08-22T23:05:11.220Z,22.72
2018-08-22T23:07:41.733Z,22.75
2018-08-22T23:10:12.977Z,22.69
2018-08-22T23:12:43.372Z,22.69
2018-08-22T23:15:15.689Z,22.67
2018-08-22T23:17:47.233Z,22.63
2018-08-22T23:20:41.821Z,22.63
2018-08-22T23:23:26.490Z,22.62
2018-08-22T23:25:58.995Z,22.58
2018-08-22T23:28:28.924Z,22.60
2018-08-22T23:30:58.550Z,22.65
2018-08-22T23:33:29.043Z,22.63
2018-08-22T23:35:58.561Z,22.59
2018-08-22T23:38:30.469Z,22.62
2018-08-22T23:41:00.749Z,22.50
2018-08-22T23:43:41.349Z,22.44
2018-08-22T23:46:12.013Z,22.24
2018-08-22T23:48:42.000Z,22.28
2018-08-22T23:51:13.339Z,22.19
2018-08-22T23:53:47.551Z,22.21
2018-08-22T23:56:21.117Z,22.10
2018-08-22T23:58:51.547Z,22.06
